sensor_id;sensor_type;location;lat;lon;timestamp;temperature;humidity
298;DHT22;133;49.626;9.680;2024-03-07T00:00:44;6.50;82.90
298;DHT22;133;49.626;9.680;2024-03-07T00:03:10;6.50;83.00
298;DHT22;133;49.626;9.680;2024-03-07T00:05:36;6.40;83.20
298;DHT22;133;49.626;9.680;2024-03-07T00:08:02;6.40;83.30
298;DHT22;133;49.626;9.680;2024-03-07T00:10:28;6.40;83.50
298;DHT22;133;49.626;9.680;2024-03-07T00:12:53;6.30;83.80
298;DHT22;133;49.626;9.680;2024-03-07T00:15:19;6.20;84.00
298;DHT22;133;49.626;9.680;2024-03-07T00:17:45;6.20;84.00
298;DHT22;133;49.626;9.680;2024-03-07T00:20:11;6.20;84.30
298;DHT22;133;49.626;9.680;2024-03-07T00:22:44;6.10;84.50
298;DHT22;133;49.626;9.680;2024-03-07T00:25:10;6.10;84.40
298;DHT22;133;49.626;9.680;2024-03-07T00:27:37;6.00;84.40
298;DHT22;133;49.626;9.680;2024-03-07T00:30:04;6.00;84.60
298;DHT22;133;49.626;9.680;2024-03-07T00:32:30;6.00;84.60
298;DHT22;133;49.626;9.680;2024-03-07T00:35:01;5.90;84.60
298;DHT22;133;49.626;9.680;2024-03-07T00:37:28;5.90;84.80
298;DHT22;133;49.626;9.680;2024-03-07T00:39:54;5.80;84.90
298;DHT22;133;49.626;9.680;2024-03-07T00:42:20;5.80;85.10
298;DHT22;133;49.626;9.680;2024-03-07T00:44:47;5.70;85.30
298;DHT22;133;49.626;9.680;2024-03-07T00:47:15;5.70;85.60
298;DHT22;133;49.626;9.680;2024-03-07T00:49:43;5.70;85.10
298;DHT22;133;49.626;9.680;2024-03-07T00:52:09;5.70;85.30
298;DHT22;133;49.626;9.680;2024-03-07T00:54:35;5.60;85.40
298;DHT22;133;49.626;9.680;2024-03-07T00:57:01;5.60;85.30
298;DHT22;133;49.626;9.680;2024-03-07T00:59:27;5.60;85.40
298;DHT22;133;49.626;9.680;2024-03-07T01:01:53;5.50;85.10
298;DHT22;133;49.626;9.680;2024-03-07T01:04:19;5.50;85.40
298;DHT22;133;49.626;9.680;2024-03-07T01:06:44;5.50;85.30
298;DHT22;133;49.626;9.680;2024-03-07T01:09:10;5.40;85.60
298;DHT22;133;49.626;9.680;2024-03-07T01:11:41;5.40;85.80
298;DHT22;133;49.626;9.680;2024-03-07T01:14:07;5.30;86.00
298;DHT22;133;49.626;9.680;2024-03-07T01:16:33;5.30;86.10
298;DHT22;133;49.626;9.680;2024-03-07T01:19:00;5.30;86.10
298;DHT22;133;49.626;9.680;2024-03-07T01:21:26;5.20;86.50
298;DHT22;133;49.626;9.680;2024-03-07T01:23:51;5.10;86.40
298;DHT22;133;49.626;9.680;2024-03-07T01:26:17;5.10;86.80
298;DHT22;133;49.626;9.680;2024-03-07T01:28:43;5.00;87.00
298;DHT22;133;49.626;9.680;2024-03-07T01:31:08;5.00;86.90
298;DHT22;133;49.626;9.680;2024-03-07T01:33:35;5.00;87.10
298;DHT22;133;49.626;9.680;2024-03-07T01:36:01;4.90;87.70
298;DHT22;133;49.626;9.680;2024-03-07T01:38:27;4.80;87.60
298;DHT22;133;49.626;9.680;2024-03-07T01:40:52;4.80;87.70
298;DHT22;133;49.626;9.680;2024-03-07T01:43:20;4.80;87.50
298;DHT22;133;49.626;9.680;2024-03-07T01:45:46;4.70;87.80
298;DHT22;133;49.626;9.680;2024-03-07T01:48:18;4.80;87.80
298;DHT22;133;49.626;9.680;2024-03-07T01:50:46;4.70;87.60
298;DHT22;133;49.626;9.680;2024-03-07T01:53:13;4.70;88.10
298;DHT22;133;49.626;9.680;2024-03-07T01:55:39;4.60;88.10
298;DHT22;133;49.626;9.680;2024-03-07T01:58:06;4.60;88.10
298;DHT22;133;49.626;9.680;2024-03-07T02:00:34;4.60;88.20
298;DHT22;133;49.626;9.680;2024-03-07T02:02:59;4.50;88.40
298;DHT22;133;49.626;9.680;2024-03-07T02:05:25;4.50;88.80
298;DHT22;133;49.626;9.680;2024-03-07T02:07:51;4.50;88.50
298;DHT22;133;49.626;9.680;2024-03-07T02:10:16;4.50;88.40
298;DHT22;133;49.626;9.680;2024-03-07T02:12:43;4.40;88.90
298;DHT22;133;49.626;9.680;2024-03-07T02:15:10;4.30;89.10
298;DHT22;133;49.626;9.680;2024-03-07T02:17:37;4.20;89.50
298;DHT22;133;49.626;9.680;2024-03-07T02:20:03;4.20;89.00
298;DHT22;133;49.626;9.680;2024-03-07T02:22:33;4.20;88.60
298;DHT22;133;49.626;9.680;2024-03-07T02:24:59;4.00;89.10
298;DHT22;133;49.626;9.680;2024-03-07T02:27:24;4.00;89.00
298;DHT22;133;49.626;9.680;2024-03-07T02:29:50;4.00;88.90
298;DHT22;133;49.626;9.680;2024-03-07T02:32:16;3.90;88.80
298;DHT22;133;49.626;9.680;2024-03-07T02:34:43;3.80;89.20
298;DHT22;133;49.626;9.680;2024-03-07T02:37:09;3.80;89.70
298;DHT22;133;49.626;9.680;2024-03-07T02:39:38;3.80;89.60
298;DHT22;133;49.626;9.680;2024-03-07T02:42:04;3.80;89.60
298;DHT22;133;49.626;9.680;2024-03-07T02:44:30;3.80;89.40
298;DHT22;133;49.626;9.680;2024-03-07T02:46:57;3.80;89.00
298;DHT22;133;49.626;9.680;2024-03-07T02:49:23;3.80;89.00
298;DHT22;133;49.626;9.680;2024-03-07T02:51:49;3.60;89.30
298;DHT22;133;49.626;9.680;2024-03-07T02:54:14;3.60;89.40
298;DHT22;133;49.626;9.680;2024-03-07T02:56:40;3.60;89.50
298;DHT22;133;49.626;9.680;2024-03-07T02:59:05;3.50;89.70
298;DHT22;133;49.626;9.680;2024-03-07T03:01:32;3.40;90.00
298;DHT22;133;49.626;9.680;2024-03-07T03:03:58;3.40;90.60
298;DHT22;133;49.626;9.680;2024-03-07T03:06:23;3.40;90.40
298;DHT22;133;49.626;9.680;2024-03-07T03:08:49;3.40;90.20
298;DHT22;133;49.626;9.680;2024-03-07T03:11:15;3.40;90.10
298;DHT22;133;49.626;9.680;2024-03-07T03:13:41;3.40;90.10
298;DHT22;133;49.626;9.680;2024-03-07T03:16:06;3.40;90.30
298;DHT22;133;49.626;9.680;2024-03-07T03:18:33;3.40;90.20
298;DHT22;133;49.626;9.680;2024-03-07T03:21:00;3.40;90.20
298;DHT22;133;49.626;9.680;2024-03-07T03:23:25;3.40;90.20
298;DHT22;133;49.626;9.680;2024-03-07T03:25:51;3.40;89.50
298;DHT22;133;49.626;9.680;2024-03-07T03:28:17;3.40;89.50
298;DHT22;133;49.626;9.680;2024-03-07T03:30:44;3.40;89.80
298;DHT22;133;49.626;9.680;2024-03-07T03:33:10;3.40;89.90
298;DHT22;133;49.626;9.680;2024-03-07T03:35:37;3.50;89.80
298;DHT22;133;49.626;9.680;2024-03-07T03:38:02;3.50;89.70
298;DHT22;133;49.626;9.680;2024-03-07T03:40:28;3.50;89.90
298;DHT22;133;49.626;9.680;2024-03-07T03:42:54;3.50;89.90
298;DHT22;133;49.626;9.680;2024-03-07T03:45:20;3.60;90.10
298;DHT22;133;49.626;9.680;2024-03-07T03:47:46;3.60;89.90
298;DHT22;133;49.626;9.680;2024-03-07T03:50:12;3.60;89.90
298;DHT22;133;49.626;9.680;2024-03-07T03:52:39;3.70;89.70
298;DHT22;133;49.626;9.680;2024-03-07T03:55:05;3.70;89.40
298;DHT22;133;49.626;9.680;2024-03-07T03:57:31;3.70;89.30
298;DHT22;133;49.626;9.680;2024-03-07T03:59:58;3.60;90.00
298;DHT22;133;49.626;9.680;2024-03-07T04:02:23;3.70;90.30
298;DHT22;133;49.626;9.680;2024-03-07T04:04:50;3.80;89.90
298;DHT22;133;49.626;9.680;2024-03-07T04:07:17;3.90;89.30
298;DHT22;133;49.626;9.680;2024-03-07T04:09:43;3.90;89.40
298;DHT22;133;49.626;9.680;2024-03-07T04:12:09;3.90;89.50
298;DHT22;133;49.626;9.680;2024-03-07T04:14:37;3.80;90.00
298;DHT22;133;49.626;9.680;2024-03-07T04:17:03;3.80;89.90
298;DHT22;133;49.626;9.680;2024-03-07T04:19:28;3.90;89.50
298;DHT22;133;49.626;9.680;2024-03-07T04:21:58;3.90;89.60
298;DHT22;133;49.626;9.680;2024-03-07T04:24:25;3.80;89.60
298;DHT22;133;49.626;9.680;2024-03-07T04:26:50;3.80;90.10
298;DHT22;133;49.626;9.680;2024-03-07T04:29:19;3.90;89.80
298;DHT22;133;49.626;9.680;2024-03-07T04:31:44;3.90;90.10
298;DHT22;133;49.626;9.680;2024-03-07T04:34:10;3.90;89.70
298;DHT22;133;49.626;9.680;2024-03-07T04:36:35;3.90;89.80
298;DHT22;133;49.626;9.680;2024-03-07T04:39:01;3.90;89.70
298;DHT22;133;49.626;9.680;2024-03-07T04:41:30;3.90;89.80
298;DHT22;133;49.626;9.680;2024-03-07T04:43:55;4.00;89.80
298;DHT22;133;49.626;9.680;2024-03-07T04:46:21;4.00;89.70
298;DHT22;133;49.626;9.680;2024-03-07T04:48:46;4.00;89.20
298;DHT22;133;49.626;9.680;2024-03-07T04:51:12;4.00;89.50
298;DHT22;133;49.626;9.680;2024-03-07T04:53:39;4.00;89.60
298;DHT22;133;49.626;9.680;2024-03-07T04:56:07;3.90;90.00
298;DHT22;133;49.626;9.680;2024-03-07T04:58:35;4.00;90.00
298;DHT22;133;49.626;9.680;2024-03-07T05:01:01;4.00;90.20
298;DHT22;133;49.626;9.680;2024-03-07T05:03:27;4.00;90.00
298;DHT22;133;49.626;9.680;2024-03-07T05:05:53;4.10;89.90
298;DHT22;133;49.626;9.680;2024-03-07T05:08:19;4.10;90.20
298;DHT22;133;49.626;9.680;2024-03-07T05:10:44;4.10;90.60
298;DHT22;133;49.626;9.680;2024-03-07T05:13:10;4.20;90.30
298;DHT22;133;49.626;9.680;2024-03-07T05:15:36;4.30;90.10
298;DHT22;133;49.626;9.680;2024-03-07T05:18:02;4.30;89.80
298;DHT22;133;49.626;9.680;2024-03-07T05:20:27;4.30;89.60
298;DHT22;133;49.626;9.680;2024-03-07T05:22:54;4.30;89.50
298;DHT22;133;49.626;9.680;2024-03-07T05:25:20;4.30;89.40
298;DHT22;133;49.626;9.680;2024-03-07T05:27:47;4.20;89.40
298;DHT22;133;49.626;9.680;2024-03-07T05:30:15;4.20;89.40
298;DHT22;133;49.626;9.680;2024-03-07T05:32:41;4.30;89.50
298;DHT22;133;49.626;9.680;2024-03-07T05:35:07;4.30;89.20
298;DHT22;133;49.626;9.680;2024-03-07T05:37:33;4.30;88.90
298;DHT22;133;49.626;9.680;2024-03-07T05:39:58;4.30;89.20
298;DHT22;133;49.626;9.680;2024-03-07T05:42:25;4.30;89.10
298;DHT22;133;49.626;9.680;2024-03-07T05:44:51;4.30;89.00
298;DHT22;133;49.626;9.680;2024-03-07T05:47:19;4.30;89.30
298;DHT22;133;49.626;9.680;2024-03-07T05:49:45;4.30;89.60
298;DHT22;133;49.626;9.680;2024-03-07T05:52:10;4.30;89.60
298;DHT22;133;49.626;9.680;2024-03-07T05:54:36;4.30;89.80
298;DHT22;133;49.626;9.680;2024-03-07T05:57:02;4.40;89.90
298;DHT22;133;49.626;9.680;2024-03-07T05:59:28;4.40;89.90
298;DHT22;133;49.626;9.680;2024-03-07T06:01:57;4.40;89.80
298;DHT22;133;49.626;9.680;2024-03-07T06:04:23;4.40;90.10
298;DHT22;133;49.626;9.680;2024-03-07T06:06:49;4.50;89.50
298;DHT22;133;49.626;9.680;2024-03-07T06:09:15;4.50;89.30
298;DHT22;133;49.626;9.680;2024-03-07T06:11:46;4.60;89.20
298;DHT22;133;49.626;9.680;2024-03-07T06:14:12;4.60;89.00
298;DHT22;133;49.626;9.680;2024-03-07T06:16:39;4.50;88.90
298;DHT22;133;49.626;9.680;2024-03-07T06:19:06;4.50;89.10
298;DHT22;133;49.626;9.680;2024-03-07T06:21:37;4.60;88.90
298;DHT22;133;49.626;9.680;2024-03-07T06:24:05;4.70;88.60
298;DHT22;133;49.626;9.680;2024-03-07T06:26:33;4.60;88.50
298;DHT22;133;49.626;9.680;2024-03-07T06:29:22;4.70;88.40
298;DHT22;133;49.626;9.680;2024-03-07T06:31:48;4.90;87.90
298;DHT22;133;49.626;9.680;2024-03-07T06:34:14;4.90;87.70
298;DHT22;133;49.626;9.680;2024-03-07T06:36:39;5.00;87.70
298;DHT22;133;49.626;9.680;2024-03-07T06:39:08;5.10;87.00
298;DHT22;133;49.626;9.680;2024-03-07T06:41:36;5.10;86.30
298;DHT22;133;49.626;9.680;2024-03-07T06:44:02;5.10;86.30
298;DHT22;133;49.626;9.680;2024-03-07T06:46:28;5.20;85.70
298;DHT22;133;49.626;9.680;2024-03-07T06:48:54;5.30;86.00
298;DHT22;133;49.626;9.680;2024-03-07T06:51:21;5.30;85.60
298;DHT22;133;49.626;9.680;2024-03-07T06:53:47;5.30;85.90
298;DHT22;133;49.626;9.680;2024-03-07T06:56:14;5.40;85.70
298;DHT22;133;49.626;9.680;2024-03-07T06:58:40;5.40;85.60
298;DHT22;133;49.626;9.680;2024-03-07T07:01:06;5.40;85.60
298;DHT22;133;49.626;9.680;2024-03-07T07:03:35;5.50;85.40
298;DHT22;133;49.626;9.680;2024-03-07T07:06:01;5.60;85.20
298;DHT22;133;49.626;9.680;2024-03-07T07:08:27;5.60;84.90
298;DHT22;133;49.626;9.680;2024-03-07T07:10:55;5.60;84.80
298;DHT22;133;49.626;9.680;2024-03-07T07:13:21;5.50;84.80
298;DHT22;133;49.626;9.680;2024-03-07T07:15:48;5.60;84.90
298;DHT22;133;49.626;9.680;2024-03-07T07:18:14;5.60;84.00
298;DHT22;133;49.626;9.680;2024-03-07T07:20:40;5.50;84.00
298;DHT22;133;49.626;9.680;2024-03-07T07:23:06;5.50;84.20
298;DHT22;133;49.626;9.680;2024-03-07T07:25:32;5.60;83.50
298;DHT22;133;49.626;9.680;2024-03-07T07:27:58;5.50;83.20
298;DHT22;133;49.626;9.680;2024-03-07T07:30:24;5.50;83.00
298;DHT22;133;49.626;9.680;2024-03-07T07:32:51;5.40;82.40
298;DHT22;133;49.626;9.680;2024-03-07T07:35:17;5.40;82.60
298;DHT22;133;49.626;9.680;2024-03-07T07:37:47;5.40;82.50
298;DHT22;133;49.626;9.680;2024-03-07T07:40:18;5.40;83.30
298;DHT22;133;49.626;9.680;2024-03-07T07:42:44;5.40;82.80
298;DHT22;133;49.626;9.680;2024-03-07T07:45:12;5.40;83.00
298;DHT22;133;49.626;9.680;2024-03-07T07:47:39;5.40;83.30
298;DHT22;133;49.626;9.680;2024-03-07T07:50:13;5.40;83.00
298;DHT22;133;49.626;9.680;2024-03-07T07:52:50;5.40;82.60
298;DHT22;133;49.626;9.680;2024-03-07T07:55:17;5.40;83.00
298;DHT22;133;49.626;9.680;2024-03-07T07:57:50;5.50;82.80
298;DHT22;133;49.626;9.680;2024-03-07T08:00:19;5.60;82.50
298;DHT22;133;49.626;9.680;2024-03-07T08:02:54;5.70;82.80
298;DHT22;133;49.626;9.680;2024-03-07T08:05:24;5.90;82.10
298;DHT22;133;49.626;9.680;2024-03-07T08:07:55;6.10;81.60
298;DHT22;133;49.626;9.680;2024-03-07T08:10:24;6.30;81.30
298;DHT22;133;49.626;9.680;2024-03-07T08:12:51;6.40;81.70
298;DHT22;133;49.626;9.680;2024-03-07T08:15:17;6.60;81.00
298;DHT22;133;49.626;9.680;2024-03-07T08:17:44;6.70;80.00
298;DHT22;133;49.626;9.680;2024-03-07T08:20:11;6.80;79.40
298;DHT22;133;49.626;9.680;2024-03-07T08:22:42;7.00;78.70
298;DHT22;133;49.626;9.680;2024-03-07T08:25:15;7.10;77.70
298;DHT22;133;49.626;9.680;2024-03-07T08:27:43;6.90;77.50
298;DHT22;133;49.626;9.680;2024-03-07T08:30:10;6.80;78.10
298;DHT22;133;49.626;9.680;2024-03-07T08:32:40;6.90;78.10
298;DHT22;133;49.626;9.680;2024-03-07T08:35:07;6.90;78.50
298;DHT22;133;49.626;9.680;2024-03-07T08:37:42;7.10;78.40
298;DHT22;133;49.626;9.680;2024-03-07T08:40:09;7.10;78.20
298;DHT22;133;49.626;9.680;2024-03-07T08:42:40;7.20;77.70
298;DHT22;133;49.626;9.680;2024-03-07T08:45:07;7.20;77.60
298;DHT22;133;49.626;9.680;2024-03-07T08:47:37;7.20;77.50
298;DHT22;133;49.626;9.680;2024-03-07T08:50:03;7.20;78.40
298;DHT22;133;49.626;9.680;2024-03-07T08:52:34;7.20;78.70
298;DHT22;133;49.626;9.680;2024-03-07T08:55:02;7.40;78.30
298;DHT22;133;49.626;9.680;2024-03-07T08:57:28;7.50;78.00
298;DHT22;133;49.626;9.680;2024-03-07T08:59:54;7.50;77.80
298;DHT22;133;49.626;9.680;2024-03-07T09:02:20;7.60;78.10
298;DHT22;133;49.626;9.680;2024-03-07T09:04:45;7.70;78.00
298;DHT22;133;49.626;9.680;2024-03-07T09:07:11;7.50;78.60
298;DHT22;133;49.626;9.680;2024-03-07T09:09:38;7.60;78.50
298;DHT22;133;49.626;9.680;2024-03-07T09:12:04;7.70;78.70
298;DHT22;133;49.626;9.680;2024-03-07T09:14:30;7.70;78.70
298;DHT22;133;49.626;9.680;2024-03-07T09:16:56;7.70;78.60
298;DHT22;133;49.626;9.680;2024-03-07T09:19:23;7.70;78.80
298;DHT22;133;49.626;9.680;2024-03-07T09:21:53;7.80;79.20
298;DHT22;133;49.626;9.680;2024-03-07T09:24:19;7.90;78.60
298;DHT22;133;49.626;9.680;2024-03-07T09:26:48;7.80;78.50
298;DHT22;133;49.626;9.680;2024-03-07T09:29:14;8.00;78.40
298;DHT22;133;49.626;9.680;2024-03-07T09:31:40;8.20;78.00
298;DHT22;133;49.626;9.680;2024-03-07T09:34:05;8.30;77.60
298;DHT22;133;49.626;9.680;2024-03-07T09:36:31;8.60;76.90
298;DHT22;133;49.626;9.680;2024-03-07T09:38:56;8.70;76.60
298;DHT22;133;49.626;9.680;2024-03-07T09:41:23;8.90;76.90
298;DHT22;133;49.626;9.680;2024-03-07T09:43:51;9.00;76.00
298;DHT22;133;49.626;9.680;2024-03-07T09:46:24;9.00;75.20
298;DHT22;133;49.626;9.680;2024-03-07T09:48:50;8.90;75.30
298;DHT22;133;49.626;9.680;2024-03-07T09:51:20;8.90;75.60
298;DHT22;133;49.626;9.680;2024-03-07T09:53:49;9.00;76.30
298;DHT22;133;49.626;9.680;2024-03-07T09:56:19;9.20;76.30
298;DHT22;133;49.626;9.680;2024-03-07T09:58:52;9.30;76.00
298;DHT22;133;49.626;9.680;2024-03-07T10:01:20;9.40;74.70
298;DHT22;133;49.626;9.680;2024-03-07T10:03:50;9.20;74.90
298;DHT22;133;49.626;9.680;2024-03-07T10:06:19;9.20;75.20
298;DHT22;133;49.626;9.680;2024-03-07T10:08:47;9.40;74.90
298;DHT22;133;49.626;9.680;2024-03-07T10:11:13;9.50;75.20
298;DHT22;133;49.626;9.680;2024-03-07T10:13:39;9.60;75.00
298;DHT22;133;49.626;9.680;2024-03-07T10:16:06;9.50;75.00
298;DHT22;133;49.626;9.680;2024-03-07T10:18:41;9.70;74.40
298;DHT22;133;49.626;9.680;2024-03-07T10:21:07;9.70;74.70
298;DHT22;133;49.626;9.680;2024-03-07T10:23:32;9.90;74.10
298;DHT22;133;49.626;9.680;2024-03-07T10:26:01;9.90;73.30
298;DHT22;133;49.626;9.680;2024-03-07T10:28:27;10.10;73.50
298;DHT22;133;49.626;9.680;2024-03-07T10:30:53;10.10;73.60
298;DHT22;133;49.626;9.680;2024-03-07T10:33:19;10.30;73.10
298;DHT22;133;49.626;9.680;2024-03-07T10:35:49;10.60;72.70
298;DHT22;133;49.626;9.680;2024-03-07T10:38:15;10.60;72.10
298;DHT22;133;49.626;9.680;2024-03-07T10:40:40;10.80;71.60
298;DHT22;133;49.626;9.680;2024-03-07T10:43:10;10.80;71.90
298;DHT22;133;49.626;9.680;2024-03-07T10:45:50;11.00;71.80
298;DHT22;133;49.626;9.680;2024-03-07T10:48:19;11.00;71.00
298;DHT22;133;49.626;9.680;2024-03-07T10:59:07;11.20;70.40
298;DHT22;133;49.626;9.680;2024-03-07T11:02:04;10.90;71.10
298;DHT22;133;49.626;9.680;2024-03-07T11:04:33;10.70;71.50
298;DHT22;133;49.626;9.680;2024-03-07T11:07:00;10.60;72.00
298;DHT22;133;49.626;9.680;2024-03-07T11:09:26;10.50;71.90
298;DHT22;133;49.626;9.680;2024-03-07T11:11:59;10.60;71.80
298;DHT22;133;49.626;9.680;2024-03-07T11:14:26;10.70;71.50
298;DHT22;133;49.626;9.680;2024-03-07T11:16:53;10.70;70.90
298;DHT22;133;49.626;9.680;2024-03-07T11:19:26;10.40;70.80
298;DHT22;133;49.626;9.680;2024-03-07T11:21:54;10.20;72.10
298;DHT22;133;49.626;9.680;2024-03-07T11:24:29;10.10;72.40
298;DHT22;133;49.626;9.680;2024-03-07T11:26:58;10.00;72.90
298;DHT22;133;49.626;9.680;2024-03-07T11:29:49;10.20;72.90
298;DHT22;133;49.626;9.680;2024-03-07T11:32:18;10.70;71.60
298;DHT22;133;49.626;9.680;2024-03-07T11:34:47;11.80;69.80
298;DHT22;133;49.626;9.680;2024-03-07T11:38:06;12.90;67.30
298;DHT22;133;49.626;9.680;2024-03-07T11:42:51;14.30;62.50
298;DHT22;133;49.626;9.680;2024-03-07T11:45:18;15.40;61.60
298;DHT22;133;49.626;9.680;2024-03-07T11:47:57;16.40;59.90
298;DHT22;133;49.626;9.680;2024-03-07T11:50:31;17.50;58.00
298;DHT22;133;49.626;9.680;2024-03-07T11:53:01;17.70;57.10
298;DHT22;133;49.626;9.680;2024-03-07T11:55:27;18.30;54.80
298;DHT22;133;49.626;9.680;2024-03-07T11:58:16;18.50;53.80
298;DHT22;133;49.626;9.680;2024-03-07T12:00:44;17.60;53.00
298;DHT22;133;49.626;9.680;2024-03-07T12:03:14;17.90;53.10
298;DHT22;133;49.626;9.680;2024-03-07T12:05:43;17.70;53.20
298;DHT22;133;49.626;9.680;2024-03-07T12:08:11;18.40;53.10
298;DHT22;133;49.626;9.680;2024-03-07T12:10:39;18.00;51.80
298;DHT22;133;49.626;9.680;2024-03-07T12:13:08;17.10;53.20
298;DHT22;133;49.626;9.680;2024-03-07T12:15:33;16.70;54.10
298;DHT22;133;49.626;9.680;2024-03-07T12:18:02;17.00;53.80
298;DHT22;133;49.626;9.680;2024-03-07T12:20:27;17.00;53.10
298;DHT22;133;49.626;9.680;2024-03-07T12:22:59;17.30;53.50
298;DHT22;133;49.626;9.680;2024-03-07T12:25:29;17.20;52.80
298;DHT22;133;49.626;9.680;2024-03-07T12:28:04;17.40;52.80
298;DHT22;133;49.626;9.680;2024-03-07T12:33:12;17.40;52.20
298;DHT22;133;49.626;9.680;2024-03-07T12:35:40;17.60;52.40
298;DHT22;133;49.626;9.680;2024-03-07T12:38:09;17.10;52.70
298;DHT22;133;49.626;9.680;2024-03-07T12:40:37;16.80;53.60
298;DHT22;133;49.626;9.680;2024-03-07T12:43:12;17.30;52.80
298;DHT22;133;49.626;9.680;2024-03-07T12:45:52;17.10;52.00
298;DHT22;133;49.626;9.680;2024-03-07T12:48:19;17.50;53.30
298;DHT22;133;49.626;9.680;2024-03-07T12:50:47;17.80;51.00
298;DHT22;133;49.626;9.680;2024-03-07T12:53:19;18.20;50.80
298;DHT22;133;49.626;9.680;2024-03-07T12:55:44;18.80;51.30
298;DHT22;133;49.626;9.680;2024-03-07T12:58:10;19.10;51.10
298;DHT22;133;49.626;9.680;2024-03-07T13:00:38;19.00;51.10
298;DHT22;133;49.626;9.680;2024-03-07T13:03:06;18.40;52.10
298;DHT22;133;49.626;9.680;2024-03-07T13:05:32;17.50;52.70
298;DHT22;133;49.626;9.680;2024-03-07T13:07:58;16.20;55.00
298;DHT22;133;49.626;9.680;2024-03-07T13:10:24;15.40;56.40
298;DHT22;133;49.626;9.680;2024-03-07T13:12:50;14.80;57.50
298;DHT22;133;49.626;9.680;2024-03-07T13:15:17;14.40;58.80
298;DHT22;133;49.626;9.680;2024-03-07T13:17:43;14.10;59.60
298;DHT22;133;49.626;9.680;2024-03-07T13:20:12;13.60;61.00
298;DHT22;133;49.626;9.680;2024-03-07T13:22:42;13.60;61.00
298;DHT22;133;49.626;9.680;2024-03-07T13:25:16;13.20;60.90
298;DHT22;133;49.626;9.680;2024-03-07T13:28:12;13.00;61.90
298;DHT22;133;49.626;9.680;2024-03-07T13:30:42;12.90;62.90
298;DHT22;133;49.626;9.680;2024-03-07T13:33:09;12.80;63.10
298;DHT22;133;49.626;9.680;2024-03-07T13:35:39;12.50;64.40
298;DHT22;133;49.626;9.680;2024-03-07T13:38:05;12.20;64.50
298;DHT22;133;49.626;9.680;2024-03-07T13:40:32;12.30;64.90
298;DHT22;133;49.626;9.680;2024-03-07T13:43:00;12.40;64.90
298;DHT22;133;49.626;9.680;2024-03-07T13:45:28;12.40;64.70
298;DHT22;133;49.626;9.680;2024-03-07T13:47:57;12.40;64.60
298;DHT22;133;49.626;9.680;2024-03-07T13:50:25;12.40;63.30
298;DHT22;133;49.626;9.680;2024-03-07T13:52:54;12.30;63.80
298;DHT22;133;49.626;9.680;2024-03-07T14:13:33;11.70;66.20
298;DHT22;133;49.626;9.680;2024-03-07T14:19:14;11.60;66.50
298;DHT22;133;49.626;9.680;2024-03-07T14:27:35;11.30;67.80
298;DHT22;133;49.626;9.680;2024-03-07T14:32:38;11.30;67.10
298;DHT22;133;49.626;9.680;2024-03-07T14:38:06;11.00;67.80
298;DHT22;133;49.626;9.680;2024-03-07T14:40:48;10.90;68.00
298;DHT22;133;49.626;9.680;2024-03-07T14:43:16;11.00;67.40
298;DHT22;133;49.626;9.680;2024-03-07T14:45:43;11.00;67.20
298;DHT22;133;49.626;9.680;2024-03-07T14:48:10;11.00;67.10
298;DHT22;133;49.626;9.680;2024-03-07T14:50:41;10.60;68.20
298;DHT22;133;49.626;9.680;2024-03-07T14:53:08;10.50;68.10
298;DHT22;133;49.626;9.680;2024-03-07T14:55:35;10.40;68.80
298;DHT22;133;49.626;9.680;2024-03-07T14:58:01;10.40;69.10
298;DHT22;133;49.626;9.680;2024-03-07T15:00:28;10.50;68.70
298;DHT22;133;49.626;9.680;2024-03-07T15:02:55;10.40;68.70
298;DHT22;133;49.626;9.680;2024-03-07T15:05:24;10.40;68.50
298;DHT22;133;49.626;9.680;2024-03-07T15:07:54;10.40;68.30
298;DHT22;133;49.626;9.680;2024-03-07T15:10:33;10.40;68.30
298;DHT22;133;49.626;9.680;2024-03-07T15:12:59;10.30;68.40
298;DHT22;133;49.626;9.680;2024-03-07T15:15:25;10.40;68.00
298;DHT22;133;49.626;9.680;2024-03-07T15:17:54;10.50;68.00
298;DHT22;133;49.626;9.680;2024-03-07T15:20:19;10.40;68.70
298;DHT22;133;49.626;9.680;2024-03-07T15:22:56;10.30;69.10
298;DHT22;133;49.626;9.680;2024-03-07T15:25:23;10.20;69.10
298;DHT22;133;49.626;9.680;2024-03-07T15:27:53;10.10;69.20
298;DHT22;133;49.626;9.680;2024-03-07T15:30:22;10.10;69.20
298;DHT22;133;49.626;9.680;2024-03-07T15:32:51;9.90;69.40
298;DHT22;133;49.626;9.680;2024-03-07T15:35:17;9.80;69.60
298;DHT22;133;49.626;9.680;2024-03-07T15:37:49;9.80;69.80
298;DHT22;133;49.626;9.680;2024-03-07T15:40:16;9.80;69.80
298;DHT22;133;49.626;9.680;2024-03-07T15:42:43;9.70;70.10
298;DHT22;133;49.626;9.680;2024-03-07T15:45:20;9.50;70.40
298;DHT22;133;49.626;9.680;2024-03-07T15:47:49;9.60;70.70
298;DHT22;133;49.626;9.680;2024-03-07T15:50:16;9.60;71.00
298;DHT22;133;49.626;9.680;2024-03-07T15:52:44;9.70;70.60
298;DHT22;133;49.626;9.680;2024-03-07T15:55:11;9.80;70.40
298;DHT22;133;49.626;9.680;2024-03-07T15:57:47;9.90;70.30
298;DHT22;133;49.626;9.680;2024-03-07T16:00:20;9.90;70.00
298;DHT22;133;49.626;9.680;2024-03-07T16:02:50;9.90;70.00
298;DHT22;133;49.626;9.680;2024-03-07T16:05:16;9.90;69.80
298;DHT22;133;49.626;9.680;2024-03-07T16:07:44;9.90;69.70
298;DHT22;133;49.626;9.680;2024-03-07T16:10:11;9.90;69.60
298;DHT22;133;49.626;9.680;2024-03-07T16:12:38;9.90;69.80
298;DHT22;133;49.626;9.680;2024-03-07T16:15:06;9.90;69.50
298;DHT22;133;49.626;9.680;2024-03-07T16:17:34;9.70;69.60
298;DHT22;133;49.626;9.680;2024-03-07T16:20:02;9.70;69.80
298;DHT22;133;49.626;9.680;2024-03-07T16:22:29;9.80;69.60
298;DHT22;133;49.626;9.680;2024-03-07T16:24:55;9.70;69.50
298;DHT22;133;49.626;9.680;2024-03-07T16:27:23;9.70;68.90
298;DHT22;133;49.626;9.680;2024-03-07T16:29:48;9.60;69.30
298;DHT22;133;49.626;9.680;2024-03-07T16:32:15;9.70;69.20
298;DHT22;133;49.626;9.680;2024-03-07T16:34:41;9.70;69.90
298;DHT22;133;49.626;9.680;2024-03-07T16:37:08;9.70;69.30
298;DHT22;133;49.626;9.680;2024-03-07T16:39:34;9.70;69.20
298;DHT22;133;49.626;9.680;2024-03-07T16:42:00;9.70;69.20
298;DHT22;133;49.626;9.680;2024-03-07T16:44:25;9.70;69.90
298;DHT22;133;49.626;9.680;2024-03-07T16:46:53;9.50;69.60
298;DHT22;133;49.626;9.680;2024-03-07T16:49:19;9.50;69.70
298;DHT22;133;49.626;9.680;2024-03-07T16:51:46;9.50;69.90
298;DHT22;133;49.626;9.680;2024-03-07T16:54:12;9.60;69.70
298;DHT22;133;49.626;9.680;2024-03-07T16:56:38;9.50;69.70
298;DHT22;133;49.626;9.680;2024-03-07T16:59:06;9.50;69.70
298;DHT22;133;49.626;9.680;2024-03-07T17:01:32;9.50;69.60
298;DHT22;133;49.626;9.680;2024-03-07T17:03:59;9.50;69.50
298;DHT22;133;49.626;9.680;2024-03-07T17:06:25;9.50;70.00
298;DHT22;133;49.626;9.680;2024-03-07T17:08:51;9.50;69.70
298;DHT22;133;49.626;9.680;2024-03-07T17:11:19;9.50;70.00
298;DHT22;133;49.626;9.680;2024-03-07T17:13:45;9.40;70.10
298;DHT22;133;49.626;9.680;2024-03-07T17:16:10;9.40;69.90
298;DHT22;133;49.626;9.680;2024-03-07T17:18:36;9.40;70.30
298;DHT22;133;49.626;9.680;2024-03-07T17:21:02;9.40;70.40
298;DHT22;133;49.626;9.680;2024-03-07T17:23:28;9.30;70.70
298;DHT22;133;49.626;9.680;2024-03-07T17:25:53;9.30;70.50
298;DHT22;133;49.626;9.680;2024-03-07T17:28:21;9.30;70.40
298;DHT22;133;49.626;9.680;2024-03-07T17:30:47;9.30;70.20
298;DHT22;133;49.626;9.680;2024-03-07T17:33:15;9.20;71.20
298;DHT22;133;49.626;9.680;2024-03-07T17:35:41;9.20;71.10